createdAt,value
2023-02-03T00:00:45.874Z,1.37
2023-02-03T00:03:32.213Z,1.36
2023-02-03T00:06:02.799Z,1.34
2023-02-03T00:08:32.628Z,1.33
2023-02-03T00:11:02.063Z,1.30
2023-02-03T00:13:31.656Z,1.27
2023-02-03T00:16:02.517Z,1.24
2023-02-03T00:18:32.663Z,1.23
2023-02-03T00:21:02.435Z,1.21
2023-02-03T00:23:33.239Z,1.19
2023-02-03T00:26:09.815Z,1.16
2023-02-03T00:28:39.880Z,1.17
2023-02-03T00:31:22.942Z,1.16
2023-02-03T00:33:56.979Z,1.14
2023-02-03T00:36:26.962Z,1.12
2023-02-03T00:38:56.649Z,1.13
2023-02-03T00:41:29.091Z,1.10
2023-02-03T00:43:59.051Z,1.11
2023-02-03T00:46:28.537Z,1.12
2023-02-03T00:48:59.278Z,1.13
2023-02-03T00:51:29.138Z,1.12
2023-02-03T00:53:58.912Z,1.12
2023-02-03T00:56:27.599Z,1.13
2023-02-03T00:58:58.331Z,1.12
2023-02-03T01:01:28.317Z,1.14
2023-02-03T01:04:00.579Z,1.13
2023-02-03T01:06:30.189Z,1.10
2023-02-03T01:09:02.591Z,1.10
2023-02-03T01:11:33.030Z,1.09
2023-02-03T01:14:02.908Z,1.09
2023-02-03T01:16:36.733Z,1.07
2023-02-03T01:19:06.963Z,1.07
2023-02-03T01:21:38.750Z,1.07
2023-02-03T01:24:10.009Z,1.05
2023-02-03T01:26:41.207Z,1.05
2023-02-03T01:29:11.242Z,1.03
2023-02-03T01:31:42.688Z,1.02
2023-02-03T01:34:13.741Z,1.02
2023-02-03T01:36:43.532Z,0.99
2023-02-03T01:39:13.564Z,0.94
2023-02-03T01:41:43.080Z,0.91
2023-02-03T01:44:33.565Z,0.86
2023-02-03T01:47:04.447Z,0.84
2023-02-03T01:49:36.556Z,0.80
2023-02-03T01:52:07.180Z,0.77
2023-02-03T01:54:41.105Z,0.74
2023-02-03T01:57:20.958Z,0.69
2023-02-03T01:59:54.562Z,0.66
2023-02-03T02:02:24.615Z,0.66
2023-02-03T02:04:54.116Z,0.63
2023-02-03T02:07:24.193Z,0.61
2023-02-03T02:09:56.062Z,0.60
2023-02-03T02:12:25.990Z,0.59
2023-02-03T02:14:55.176Z,0.59
2023-02-03T02:17:35.592Z,0.59
2023-02-03T02:20:20.819Z,0.58
2023-02-03T02:23:10.060Z,0.58
2023-02-03T02:25:47.863Z,0.59
2023-02-03T02:28:32.964Z,0.60
2023-02-03T02:31:21.322Z,0.59
2023-02-03T02:33:58.135Z,0.59
2023-02-03T02:36:40.474Z,0.58
2023-02-03T02:39:09.225Z,0.56
2023-02-03T02:41:45.916Z,0.56
2023-02-03T02:44:23.552Z,0.56
2023-02-03T02:47:00.540Z,0.56
2023-02-03T02:49:41.196Z,0.56
2023-02-03T02:52:10.928Z,0.55
2023-02-03T02:54:42.963Z,0.53
2023-02-03T02:57:14.256Z,0.55
2023-02-03T02:59:44.150Z,0.55
2023-02-03T03:02:14.486Z,0.55
2023-02-03T03:04:48.125Z,0.56
2023-02-03T03:07:20.264Z,0.57
2023-02-03T03:09:53.120Z,0.56
2023-02-03T03:12:28.243Z,0.56
2023-02-03T03:15:04.453Z,0.57
2023-02-03T03:17:44.113Z,0.56
2023-02-03T03:20:18.397Z,0.53
2023-02-03T03:22:53.721Z,0.53
2023-02-03T03:25:29.076Z,0.50
2023-02-03T03:28:06.345Z,0.48
2023-02-03T03:30:37.909Z,0.45
2023-02-03T03:33:09.635Z,0.46
2023-02-03T03:35:38.293Z,0.44
2023-02-03T03:38:15.966Z,0.42
2023-02-03T03:41:00.139Z,0.41
2023-02-03T03:43:32.661Z,0.40
2023-02-03T03:46:04.867Z,0.39
2023-02-03T03:48:37.888Z,0.41
2023-02-03T03:51:19.704Z,0.40
2023-02-03T03:53:52.588Z,0.40
2023-02-03T03:56:36.471Z,0.38
2023-02-03T03:59:08.460Z,0.37
2023-02-03T04:01:39.052Z,0.38
2023-02-03T04:04:11.352Z,0.37
2023-02-03T04:06:40.896Z,0.36
2023-02-03T04:09:10.241Z,0.36
2023-02-03T04:11:59.752Z,0.36
2023-02-03T04:14:30.995Z,0.35
2023-02-03T04:17:00.973Z,0.34
2023-02-03T04:19:29.730Z,0.34
2023-02-03T04:21:58.771Z,0.36
2023-02-03T04:24:28.904Z,0.36
2023-02-03T04:26:58.935Z,0.35
2023-02-03T04:29:28.651Z,0.34
2023-02-03T04:31:58.200Z,0.34
2023-02-03T04:34:28.993Z,0.32
2023-02-03T04:36:58.756Z,0.31
2023-02-03T04:39:28.715Z,0.28
2023-02-03T04:41:58.239Z,0.29
2023-02-03T04:44:28.305Z,0.29
2023-02-03T04:46:57.094Z,0.27
2023-02-03T04:49:26.981Z,0.26
2023-02-03T04:51:56.848Z,0.25
2023-02-03T04:54:26.269Z,0.29
2023-02-03T04:56:56.212Z,0.35
2023-02-03T04:59:26.334Z,0.31
2023-02-03T05:01:56.219Z,0.25
2023-02-03T05:04:25.635Z,0.20
2023-02-03T05:06:56.847Z,0.17
2023-02-03T05:09:27.501Z,0.14
2023-02-03T05:11:57.345Z,0.13
2023-02-03T05:14:26.852Z,0.11
2023-02-03T05:16:56.703Z,0.11
2023-02-03T05:19:28.550Z,0.09
2023-02-03T05:21:58.184Z,0.09
2023-02-03T05:24:26.835Z,0.08
2023-02-03T05:26:56.843Z,0.06
2023-02-03T05:29:26.294Z,0.05
2023-02-03T05:31:56.013Z,0.05
2023-02-03T05:34:25.987Z,0.07
2023-02-03T05:36:56.051Z,0.08
2023-02-03T05:39:25.800Z,0.10
2023-02-03T05:41:58.370Z,0.11
2023-02-03T05:44:29.824Z,0.11
2023-02-03T05:47:01.537Z,0.12
2023-02-03T05:49:31.873Z,0.12
2023-02-03T05:52:01.735Z,0.13
2023-02-03T05:54:32.108Z,0.17
2023-02-03T05:57:01.954Z,0.16
2023-02-03T05:59:30.697Z,0.17
2023-02-03T06:02:00.495Z,0.16
2023-02-03T06:04:30.381Z,0.17
2023-02-03T06:06:59.855Z,0.17
2023-02-03T06:09:29.618Z,0.18
2023-02-03T06:11:59.527Z,0.19
2023-02-03T06:14:31.354Z,0.20
2023-02-03T06:17:01.012Z,0.20
2023-02-03T06:19:30.900Z,0.21
2023-02-03T06:22:00.785Z,0.22
2023-02-03T06:24:30.608Z,0.24
2023-02-03T06:26:59.315Z,0.24
2023-02-03T06:29:29.111Z,0.23
2023-02-03T06:31:59.367Z,0.23
2023-02-03T06:34:29.453Z,0.24
2023-02-03T06:36:59.459Z,0.24
2023-02-03T06:39:29.122Z,0.24
2023-02-03T06:41:58.608Z,0.24
2023-02-03T06:44:28.461Z,0.24
2023-02-03T06:46:59.134Z,0.25
2023-02-03T06:49:29.074Z,0.25
2023-02-03T06:51:58.999Z,0.25
2023-02-03T06:54:29.382Z,0.23
2023-02-03T06:56:59.412Z,0.24
2023-02-03T06:59:28.799Z,0.23
2023-02-03T07:01:58.682Z,0.25
2023-02-03T07:04:30.612Z,0.26
2023-02-03T07:07:00.394Z,0.28
2023-02-03T07:09:29.987Z,0.30
2023-02-03T07:11:59.852Z,0.35
2023-02-03T07:14:31.509Z,0.37
2023-02-03T07:17:01.253Z,0.41
2023-02-03T07:19:30.723Z,0.45
2023-02-03T07:22:00.574Z,0.47
2023-02-03T07:24:30.609Z,0.49
2023-02-03T07:27:01.080Z,0.53
2023-02-03T07:29:30.936Z,0.58
2023-02-03T07:32:04.352Z,0.59
2023-02-03T07:34:34.142Z,0.62
2023-02-03T07:37:04.026Z,0.64
2023-02-03T07:39:33.557Z,0.69
2023-02-03T07:42:03.266Z,0.73
2023-02-03T07:44:33.405Z,0.77
2023-02-03T07:47:03.141Z,0.82
2023-02-03T07:49:33.035Z,0.88
2023-02-03T07:52:02.784Z,0.92
2023-02-03T07:54:32.800Z,0.94
2023-02-03T07:57:02.496Z,0.97
2023-02-03T07:59:32.235Z,0.97
2023-02-03T08:02:02.093Z,0.95
2023-02-03T08:04:31.861Z,0.93
2023-02-03T08:07:01.577Z,0.91
2023-02-03T08:09:31.665Z,0.91
2023-02-03T08:12:00.985Z,0.93
2023-02-03T08:14:31.671Z,0.97
2023-02-03T08:17:01.480Z,1.00
2023-02-03T08:19:31.836Z,1.00
2023-02-03T08:22:01.411Z,1.06
2023-02-03T08:24:31.449Z,1.19
2023-02-03T08:27:01.581Z,1.35
2023-02-03T08:29:31.423Z,1.45
2023-02-03T08:32:00.325Z,1.54
2023-02-03T08:34:30.893Z,1.63
2023-02-03T08:37:00.442Z,1.70
2023-02-03T08:39:30.661Z,1.74
2023-02-03T08:42:00.765Z,1.85
2023-02-03T08:44:33.820Z,1.88
2023-02-03T08:47:03.853Z,1.88
2023-02-03T08:49:34.048Z,1.84
2023-02-03T08:52:03.550Z,1.84
2023-02-03T08:54:33.836Z,1.84
2023-02-03T08:57:03.413Z,1.86
2023-02-03T08:59:36.686Z,1.84
2023-02-03T09:02:08.267Z,1.74
2023-02-03T09:04:40.131Z,1.64
2023-02-03T09:07:09.817Z,1.51
2023-02-03T09:09:40.342Z,1.41
2023-02-03T09:12:12.090Z,1.32
2023-02-03T09:14:42.041Z,1.28
2023-02-03T09:17:11.931Z,1.25
2023-02-03T09:19:43.763Z,1.26
2023-02-03T09:22:12.598Z,1.27
2023-02-03T09:24:41.810Z,1.26
2023-02-03T09:27:12.320Z,1.32
2023-02-03T09:29:42.196Z,1.38
2023-02-03T09:32:14.351Z,1.45
2023-02-03T09:34:45.281Z,1.51
2023-02-03T09:37:15.126Z,1.51
2023-02-03T09:39:44.965Z,1.54
2023-02-03T09:42:17.503Z,1.60
2023-02-03T09:45:02.263Z,1.62
2023-02-03T09:47:37.767Z,1.65
2023-02-03T09:50:12.897Z,1.65
2023-02-03T09:52:44.884Z,1.66
2023-02-03T09:55:20.269Z,1.68
2023-02-03T09:57:57.743Z,1.67
2023-02-03T10:00:30.145Z,1.67
2023-02-03T10:03:10.142Z,1.77
2023-02-03T10:05:45.897Z,1.81
2023-02-03T10:08:22.862Z,1.87
2023-02-03T10:11:10.480Z,2.02
2023-02-03T10:13:48.838Z,2.36
2023-02-03T10:16:30.772Z,2.63
2023-02-03T10:19:04.167Z,2.79
2023-02-03T10:22:05.165Z,3.01
2023-02-03T10:24:43.692Z,3.19
2023-02-03T10:27:20.940Z,3.24
2023-02-03T10:30:03.241Z,3.23
2023-02-03T10:32:34.307Z,3.20
2023-02-03T10:35:06.448Z,3.22
2023-02-03T10:37:43.761Z,3.22
2023-02-03T10:40:14.966Z,3.25
2023-02-03T10:43:07.665Z,3.34
2023-02-03T10:45:38.996Z,3.38
2023-02-03T10:48:14.587Z,3.42
2023-02-03T10:50:47.394Z,3.50
2023-02-03T10:53:25.562Z,3.73
2023-02-03T10:56:21.834Z,3.84
2023-02-03T10:58:53.785Z,3.95
2023-02-03T11:01:26.352Z,3.91
2023-02-03T11:04:05.620Z,3.76
2023-02-03T11:06:37.224Z,3.75
2023-02-03T11:09:23.460Z,3.83
2023-02-03T11:12:06.360Z,3.89
2023-02-03T11:14:40.039Z,3.92
2023-02-03T11:17:10.805Z,4.01
2023-02-03T11:19:40.315Z,4.22
2023-02-03T11:22:10.163Z,4.38
2023-02-03T11:24:41.323Z,4.49
2023-02-03T11:27:13.825Z,4.60
2023-02-03T11:29:48.387Z,4.70
2023-02-03T11:32:26.062Z,4.81
2023-02-03T11:34:57.892Z,4.96
2023-02-03T11:37:30.232Z,4.93
2023-02-03T11:40:09.137Z,4.96
2023-02-03T11:42:41.834Z,5.03
2023-02-03T11:45:14.848Z,5.02
2023-02-03T11:47:54.544Z,4.95
2023-02-03T11:50:43.544Z,4.85
2023-02-03T11:53:13.357Z,4.75
2023-02-03T11:55:47.894Z,4.76
2023-02-03T11:58:31.129Z,4.80
2023-02-03T12:01:16.787Z,4.87
2023-02-03T12:04:18.967Z,4.92
2023-02-03T12:07:18.194Z,4.89
2023-02-03T12:10:06.453Z,4.80
2023-02-03T12:12:39.106Z,4.84
2023-02-03T12:15:08.648Z,4.86
2023-02-03T12:17:55.234Z,4.81
2023-02-03T12:20:47.289Z,4.71
2023-02-03T12:23:24.895Z,4.66
2023-02-03T12:26:14.640Z,4.66
2023-02-03T12:28:57.787Z,4.64
2023-02-03T12:31:29.827Z,4.62
2023-02-03T12:34:12.908Z,4.58
2023-02-03T12:36:49.431Z,4.53
2023-02-03T12:39:21.126Z,4.41
2023-02-03T12:42:01.295Z,4.35
2023-02-03T12:44:36.487Z,4.26
2023-02-03T12:47:15.483Z,4.19
2023-02-03T12:50:02.995Z,4.20
2023-02-03T12:52:31.749Z,4.26
2023-02-03T12:55:20.048Z,4.30
2023-02-03T12:57:55.805Z,4.36
2023-02-03T13:00:31.939Z,4.35
2023-02-03T13:03:17.541Z,4.38
2023-02-03T13:05:52.213Z,4.48
2023-02-03T13:08:21.746Z,4.54
2023-02-03T13:11:15.431Z,4.57
2023-02-03T13:13:49.307Z,4.59
2023-02-03T13:16:23.003Z,4.63
2023-02-03T13:18:57.217Z,4.65
2023-02-03T13:21:29.667Z,4.73
2023-02-03T13:23:58.733Z,4.78
2023-02-03T13:26:51.252Z,4.70
2023-02-03T13:29:34.428Z,4.45
2023-02-03T13:32:19.238Z,4.33
2023-02-03T13:35:09.266Z,4.25
2023-02-03T13:37:48.074Z,4.15
2023-02-03T13:40:23.715Z,4.08
2023-02-03T13:42:55.885Z,3.96
2023-02-03T13:45:45.883Z,3.88
2023-02-03T13:48:24.075Z,3.79
2023-02-03T13:51:13.373Z,3.71
2023-02-03T13:53:45.528Z,3.60
2023-02-03T13:56:20.506Z,3.52
2023-02-03T13:59:05.721Z,3.45
2023-02-03T14:01:40.991Z,3.40
2023-02-03T14:04:25.947Z,3.33
2023-02-03T14:06:57.417Z,3.30
2023-02-03T14:09:35.904Z,3.28
2023-02-03T14:12:18.698Z,3.28
2023-02-03T14:14:54.153Z,3.25
2023-02-03T14:17:37.586Z,3.21
2023-02-03T14:20:27.601Z,3.18
2023-02-03T14:23:06.935Z,3.13
2023-02-03T14:25:44.514Z,3.09
2023-02-03T14:28:26.601Z,3.02
2023-02-03T14:31:03.703Z,2.97
2023-02-03T14:33:52.246Z,2.95
2023-02-03T14:36:39.846Z,2.93
2023-02-03T14:39:18.726Z,2.92
2023-02-03T14:41:56.714Z,2.89
2023-02-03T14:44:32.699Z,2.86
2023-02-03T14:47:05.913Z,2.84
2023-02-03T14:49:36.214Z,2.83
2023-02-03T14:52:16.678Z,2.82
2023-02-03T14:54:55.964Z,2.80
2023-02-03T14:57:33.722Z,2.80
2023-02-03T15:00:06.283Z,2.76
2023-02-03T15:02:37.130Z,2.76
2023-02-03T15:05:15.768Z,2.77
2023-02-03T15:07:49.028Z,2.68
2023-02-03T15:10:20.480Z,2.63
2023-02-03T15:12:53.859Z,2.61
2023-02-03T15:15:28.843Z,2.53
2023-02-03T15:18:00.268Z,2.50
2023-02-03T15:20:35.566Z,2.48
2023-02-03T15:23:20.325Z,2.49
2023-02-03T15:26:00.450Z,2.47
2023-02-03T15:28:30.874Z,2.44
2023-02-03T15:31:00.627Z,2.36
2023-02-03T15:33:31.655Z,2.30
2023-02-03T15:36:06.827Z,2.28
2023-02-03T15:38:39.688Z,2.29
2023-02-03T15:41:18.327Z,2.25
2023-02-03T15:43:51.071Z,2.22
2023-02-03T15:46:34.187Z,2.21
2023-02-03T15:49:23.315Z,2.19
2023-02-03T15:51:58.206Z,2.16
2023-02-03T15:54:54.216Z,2.11
2023-02-03T15:57:29.221Z,2.10
2023-02-03T16:00:02.385Z,2.13
2023-02-03T16:02:46.559Z,2.12
2023-02-03T16:05:26.158Z,2.10
2023-02-03T16:07:56.668Z,2.06
2023-02-03T16:10:31.271Z,2.02
2023-02-03T16:13:18.767Z,1.97
2023-02-03T16:16:18.157Z,1.96
2023-02-03T16:18:57.574Z,1.98
2023-02-03T16:21:31.912Z,1.99
2023-02-03T16:24:01.678Z,2.01
2023-02-03T16:26:32.042Z,2.03
2023-02-03T16:29:23.971Z,2.02
2023-02-03T16:32:12.941Z,2.02
2023-02-03T16:35:01.769Z,2.01
2023-02-03T16:37:55.397Z,1.93
2023-02-03T16:40:44.837Z,1.88
2023-02-03T16:43:35.211Z,1.84
2023-02-03T16:46:30.875Z,1.84
2023-02-03T16:49:20.087Z,1.84
2023-02-03T16:51:49.718Z,1.84
2023-02-03T16:54:19.242Z,1.79
2023-02-03T16:56:49.965Z,1.73
2023-02-03T16:59:20.213Z,1.70
2023-02-03T17:01:49.730Z,1.67
2023-02-03T17:04:18.512Z,1.64
2023-02-03T17:06:51.677Z,1.61
2023-02-03T17:09:23.810Z,1.55
2023-02-03T17:11:53.419Z,1.51
2023-02-03T17:14:22.204Z,1.43
2023-02-03T17:16:51.981Z,1.37
2023-02-03T17:19:21.951Z,1.33
2023-02-03T17:21:53.038Z,1.30
2023-02-03T17:24:22.820Z,1.23
2023-02-03T17:26:53.497Z,1.13
2023-02-03T17:29:23.416Z,1.08
2023-02-03T17:31:52.356Z,1.07
2023-02-03T17:34:22.730Z,1.02
2023-02-03T17:36:55.143Z,0.99
2023-02-03T17:53:24.931Z,0.58
2023-02-03T17:55:54.814Z,0.57
2023-02-03T17:58:24.845Z,0.52
2023-02-03T18:00:54.509Z,0.44
2023-02-03T18:03:24.536Z,0.41
2023-02-03T18:05:54.508Z,0.41
2023-02-03T18:08:25.537Z,0.40
2023-02-03T18:10:55.599Z,0.38
2023-02-03T18:13:27.454Z,0.35
2023-02-03T18:15:57.733Z,0.31
2023-02-03T18:18:28.592Z,0.27
2023-02-03T18:21:00.109Z,0.23
2023-02-03T18:23:30.224Z,0.21
2023-02-03T18:26:02.025Z,0.19
2023-02-03T18:28:31.928Z,0.22
2023-02-03T18:31:06.190Z,0.24
2023-02-03T18:33:37.707Z,0.23
2023-02-03T18:36:07.799Z,0.21
2023-02-03T18:38:38.108Z,0.19
2023-02-03T18:41:08.505Z,0.17
2023-02-03T18:43:38.070Z,0.17
2023-02-03T18:46:14.450Z,0.16
2023-02-03T18:48:44.879Z,0.17
2023-02-03T18:51:16.113Z,0.19
2023-02-03T18:53:47.192Z,0.21
2023-02-03T18:56:18.591Z,0.20
2023-02-03T18:58:48.415Z,0.20
2023-02-03T19:01:25.099Z,0.21
2023-02-03T19:03:55.891Z,0.20
2023-02-03T19:06:26.448Z,0.17
2023-02-03T19:08:55.999Z,0.17
2023-02-03T19:11:26.350Z,0.16
2023-02-03T19:13:56.116Z,0.14
2023-02-03T19:16:26.045Z,0.15
2023-02-03T19:18:55.903Z,0.14
2023-02-03T19:21:25.252Z,0.13
2023-02-03T19:23:55.576Z,0.12
2023-02-03T19:26:28.455Z,0.12
2023-02-03T19:28:58.376Z,0.13
2023-02-03T19:31:27.238Z,0.11
2023-02-03T19:33:59.375Z,0.09
2023-02-03T19:36:30.265Z,0.07
2023-02-03T19:38:59.369Z,0.06
2023-02-03T19:41:31.312Z,0.03
2023-02-03T19:44:03.879Z,0.02
2023-02-03T19:46:42.968Z,0.04
2023-02-03T19:49:15.393Z,0.04
2023-02-03T19:51:45.188Z,0.03
2023-02-03T19:54:15.879Z,0.04
2023-02-03T19:56:46.263Z,0.01
2023-02-03T19:59:16.163Z,0.00
2023-02-03T20:01:45.013Z,0.01
2023-02-03T20:04:15.209Z,0.02
2023-02-03T20:06:44.867Z,0.01
2023-02-03T20:09:14.647Z,0.02
2023-02-03T20:11:44.237Z,0.03
2023-02-03T20:14:16.130Z,0.05
2023-02-03T20:16:50.611Z,0.03
2023-02-03T20:19:20.607Z,0.02
2023-02-03T20:21:50.284Z,0.03
2023-02-03T20:24:19.686Z,0.04
2023-02-03T20:26:49.317Z,0.01
2023-02-03T20:29:18.902Z,-0.04
2023-02-03T20:31:48.331Z,-0.06
2023-02-03T20:34:18.458Z,-0.06
2023-02-03T20:36:48.074Z,-0.09
2023-02-03T20:39:21.175Z,-0.09
2023-02-03T20:41:51.240Z,-0.10
2023-02-03T20:44:20.870Z,-0.11
2023-02-03T20:46:52.822Z,-0.11
2023-02-03T20:49:22.649Z,-0.12
2023-02-03T20:51:52.371Z,-0.13
2023-02-03T20:54:23.109Z,-0.14
2023-02-03T20:56:52.602Z,-0.13
2023-02-03T20:59:22.347Z,-0.10
2023-02-03T21:01:52.676Z,-0.10
2023-02-03T21:05:02.299Z,-0.15
2023-02-03T21:07:32.499Z,-0.18
2023-02-03T21:10:13.279Z,-0.18
2023-02-03T21:12:43.488Z,-0.16
2023-02-03T21:15:20.820Z,-0.14
2023-02-03T21:17:52.204Z,-0.12
2023-02-03T21:20:30.001Z,-0.12
2023-02-03T21:23:00.399Z,-0.11
2023-02-03T21:25:32.271Z,-0.12
2023-02-03T21:28:01.926Z,-0.10
2023-02-03T21:30:35.253Z,-0.12
2023-02-03T21:33:27.508Z,-0.15
2023-02-03T21:35:57.533Z,-0.17
2023-02-03T21:38:34.124Z,-0.18
2023-02-03T21:41:14.250Z,-0.21
2023-02-03T21:43:45.489Z,-0.23
2023-02-03T21:46:41.447Z,-0.23
2023-02-03T21:49:18.324Z,-0.20
2023-02-03T21:51:49.263Z,-0.18
2023-02-03T21:54:21.774Z,-0.18
2023-02-03T21:56:51.454Z,-0.19
2023-02-03T21:59:23.366Z,-0.17
2023-02-03T22:01:59.186Z,-0.15
2023-02-03T22:04:29.831Z,-0.12
2023-02-03T22:06:59.595Z,-0.11
2023-02-03T22:09:29.414Z,-0.11
2023-02-03T22:12:01.195Z,-0.12
2023-02-03T22:14:31.252Z,-0.12
2023-02-03T22:17:03.043Z,-0.10
2023-02-03T22:19:32.824Z,-0.08
2023-02-03T22:22:03.018Z,-0.08
2023-02-03T22:24:32.940Z,-0.10
2023-02-03T22:27:02.506Z,-0.11
2023-02-03T22:29:32.447Z,-0.10
2023-02-03T22:32:02.657Z,-0.09
2023-02-03T22:34:32.676Z,-0.08
2023-02-03T22:37:02.170Z,-0.07
2023-02-03T22:39:32.000Z,-0.04
2023-02-03T22:42:01.872Z,-0.03
2023-02-03T22:44:31.712Z,-0.04
2023-02-03T22:47:00.876Z,-0.03
2023-02-03T22:49:30.606Z,0.00
2023-02-03T22:52:00.314Z,0.04
2023-02-03T22:54:30.516Z,0.06
2023-02-03T22:57:00.336Z,0.08
2023-02-03T22:59:32.044Z,0.11
2023-02-03T23:02:02.185Z,0.15
2023-02-03T23:04:32.136Z,0.17
2023-02-03T23:07:01.881Z,0.18
2023-02-03T23:09:31.656Z,0.22
2023-02-03T23:12:01.650Z,0.24
2023-02-03T23:14:31.539Z,0.24
2023-02-03T23:17:03.306Z,0.29
2023-02-03T23:19:32.662Z,0.32
2023-02-03T23:22:02.591Z,0.31
2023-02-03T23:24:32.619Z,0.30
2023-02-03T23:27:01.836Z,0.30
2023-02-03T23:29:33.689Z,0.29
2023-02-03T23:32:03.448Z,0.27
2023-02-03T23:34:53.026Z,0.24
2023-02-03T23:37:23.237Z,0.24
2023-02-03T23:39:52.828Z,0.23
2023-02-03T23:42:22.118Z,0.23
2023-02-03T23:44:51.692Z,0.26
2023-02-03T23:47:21.314Z,0.26
2023-02-03T23:49:50.836Z,0.29
2023-02-03T23:52:20.333Z,0.31
2023-02-03T23:54:50.218Z,0.33
2023-02-03T23:57:19.742Z,0.29
2023-02-03T23:59:49.237Z,0.23
